Terminal Aerodrome Forecast
Issued by NWS Indianapolis, IN

Home | Current Version | Previous Version | Text Only | Print | Product List | Glossary On
Versions: 1 2 3 4 5 6 7 8 9 10 11 12 13 14 15 16 17 18 19 20 21 22 23 24
000
FTUS43 KIND 162000 AAA
TAFIND
TAF AMD
KIND 162022Z 1620/1724 01005KT P6SM SCT025 BKN040
     FM170100 03004KT P6SM SCT040
     FM171100 VRB02KT 4SM BR SCT250
     FM171300 VRB03KT P6SM SCT035
     FM171700 28005KT P6SM BKN040=

USA.gov is the U.S. government's official web portal to all federal, state and local government web resources and services.